createdAt,value
2019-05-21T00:00:14.964Z,13.03
2019-05-21T00:01:14.954Z,13.12
2019-05-21T00:02:14.944Z,13.14
2019-05-21T00:03:14.935Z,13.12
2019-05-21T00:04:27.359Z,13.11
2019-05-21T00:05:15.909Z,13.15
2019-05-21T00:06:14.901Z,13.15
2019-05-21T00:07:14.893Z,13.26
2019-05-21T00:08:14.878Z,13.19
2019-05-21T00:09:14.867Z,13.30
2019-05-21T00:10:14.856Z,13.29
2019-05-21T00:11:14.847Z,13.33
2019-05-21T00:12:14.834Z,13.41
2019-05-21T00:13:14.828Z,13.36
2019-05-21T00:14:14.813Z,13.39
2019-05-21T00:15:14.806Z,13.41
2019-05-21T00:16:14.793Z,13.38
2019-05-21T00:17:14.784Z,13.39
2019-05-21T00:18:14.771Z,13.36
2019-05-21T00:19:14.759Z,13.44
2019-05-21T00:20:14.815Z,13.38
2019-05-21T00:21:14.793Z,13.39
2019-05-21T00:22:14.728Z,13.38
2019-05-21T00:23:14.716Z,13.45
2019-05-21T00:24:14.704Z,13.46
2019-05-21T00:25:17.122Z,13.45
2019-05-21T00:26:14.684Z,13.49
2019-05-21T00:27:14.677Z,13.55
2019-05-21T00:28:14.663Z,13.54
2019-05-21T00:29:14.651Z,13.51
2019-05-21T00:30:14.643Z,13.48
2019-05-21T00:31:14.630Z,13.45
2019-05-21T00:32:14.621Z,13.44
2019-05-21T00:33:14.615Z,13.45
2019-05-21T00:34:14.601Z,13.45
2019-05-21T00:35:14.587Z,13.42
2019-05-21T00:36:14.576Z,13.36
2019-05-21T00:37:14.590Z,13.33
2019-05-21T00:38:14.555Z,13.32
2019-05-21T00:39:14.546Z,13.29
2019-05-21T00:40:14.534Z,13.36
2019-05-21T00:41:14.523Z,13.29
2019-05-21T00:42:14.513Z,13.25
2019-05-21T00:43:14.503Z,13.32
2019-05-21T00:44:14.490Z,13.41
2019-05-21T00:45:14.480Z,13.44
2019-05-21T00:46:14.469Z,13.52
2019-05-21T00:47:14.461Z,13.51
2019-05-21T00:48:14.448Z,13.52
2019-05-21T00:49:14.438Z,13.48
2019-05-21T00:50:14.427Z,13.51
2019-05-21T00:51:14.417Z,13.48
2019-05-21T00:52:14.404Z,13.52
2019-05-21T00:53:14.393Z,13.59
2019-05-21T00:54:14.383Z,13.59
2019-05-21T00:55:14.377Z,13.57
2019-05-21T00:56:14.364Z,13.64
2019-05-21T00:57:14.353Z,13.66
2019-05-21T00:58:14.343Z,13.62
2019-05-21T00:59:14.333Z,13.60
2019-05-21T01:00:14.476Z,13.46
2019-05-21T01:01:14.309Z,13.54
2019-05-21T01:02:14.298Z,13.48
2019-05-21T01:03:14.285Z,13.48
2019-05-21T01:04:14.276Z,13.41
2019-05-21T01:05:14.265Z,13.46
2019-05-21T01:06:14.257Z,13.42
2019-05-21T01:07:14.245Z,13.42
2019-05-21T01:08:14.235Z,13.45
2019-05-21T01:09:14.222Z,13.44
2019-05-21T01:10:14.212Z,13.33
2019-05-21T01:11:14.202Z,13.30
2019-05-21T01:12:14.191Z,13.29
2019-05-21T01:13:14.179Z,13.19
2019-05-21T01:14:14.167Z,13.29
2019-05-21T01:15:14.159Z,13.41
2019-05-21T01:16:14.149Z,13.41
2019-05-21T01:17:14.135Z,13.38
2019-05-21T01:18:14.130Z,13.45
2019-05-21T01:19:14.115Z,13.46
2019-05-21T01:20:14.107Z,13.41
2019-05-21T01:21:14.106Z,13.42
2019-05-21T01:22:14.081Z,13.45
2019-05-21T01:23:14.071Z,13.32
2019-05-21T01:24:14.070Z,13.38
2019-05-21T01:25:14.054Z,13.39
2019-05-21T01:26:14.041Z,13.36
2019-05-21T01:27:14.026Z,13.39
2019-05-21T01:28:14.016Z,13.44
2019-05-21T01:29:14.008Z,13.38
2019-05-21T01:30:13.998Z,13.30
2019-05-21T01:31:13.986Z,13.29
2019-05-21T01:32:13.973Z,13.26
2019-05-21T01:33:13.963Z,13.46
2019-05-21T01:34:13.952Z,13.33
2019-05-21T01:35:17.260Z,13.32
2019-05-21T01:36:13.930Z,13.28
2019-05-21T01:37:13.923Z,13.28
2019-05-21T01:38:13.909Z,13.26
2019-05-21T01:39:13.900Z,13.28
2019-05-21T01:40:13.888Z,13.25
2019-05-21T01:41:13.878Z,13.25
2019-05-21T01:42:13.865Z,13.25
2019-05-21T01:43:13.858Z,13.17
2019-05-21T01:44:13.845Z,13.17
2019-05-21T01:45:13.833Z,13.23
2019-05-21T01:46:13.827Z,13.14
2019-05-21T01:47:13.817Z,13.25
2019-05-21T01:48:13.819Z,13.26
2019-05-21T01:49:13.792Z,13.17
2019-05-21T01:50:13.783Z,13.20
2019-05-21T01:51:13.768Z,13.15
2019-05-21T01:52:13.756Z,13.11
2019-05-21T01:53:13.751Z,13.12
2019-05-21T01:54:13.738Z,13.15
2019-05-21T01:55:13.728Z,13.10
2019-05-21T01:56:13.717Z,13.04
2019-05-21T01:57:13.705Z,13.04
2019-05-21T01:58:13.693Z,12.96
2019-05-21T01:59:13.685Z,12.89
2019-05-21T02:00:13.672Z,12.93
2019-05-21T02:01:13.685Z,12.95
2019-05-21T02:02:13.654Z,12.79
2019-05-21T02:03:13.640Z,12.78
2019-05-21T02:04:13.635Z,12.74
2019-05-21T02:05:13.619Z,12.82
2019-05-21T02:06:13.609Z,12.82
2019-05-21T02:07:13.596Z,12.82
2019-05-21T02:08:13.588Z,12.82
2019-05-21T02:09:13.574Z,12.75
2019-05-21T02:10:13.565Z,12.74
2019-05-21T02:11:13.561Z,12.77
2019-05-21T02:12:13.541Z,12.72
2019-05-21T02:13:13.543Z,12.71
2019-05-21T02:14:13.518Z,12.71
2019-05-21T02:15:13.507Z,12.77
2019-05-21T02:16:13.602Z,12.74
2019-05-21T02:17:13.489Z,12.83
2019-05-21T02:18:13.487Z,12.79
2019-05-21T02:19:13.468Z,12.83
2019-05-21T02:20:13.453Z,12.95
2019-05-21T02:21:13.443Z,12.86
2019-05-21T02:22:13.433Z,12.95
2019-05-21T02:23:13.424Z,12.79
2019-05-21T02:24:13.410Z,12.85
2019-05-21T02:25:13.399Z,12.82
2019-05-21T02:26:13.394Z,12.82
2019-05-21T02:27:13.377Z,12.87
2019-05-21T02:28:13.368Z,12.92
2019-05-21T02:29:13.355Z,12.78
2019-05-21T02:30:13.353Z,12.97
2019-05-21T02:31:13.344Z,12.87
2019-05-21T02:32:13.323Z,12.83
2019-05-21T02:33:13.314Z,12.82
2019-05-21T02:34:13.302Z,12.83
2019-05-21T02:35:13.291Z,12.77
2019-05-21T02:36:13.279Z,12.71
2019-05-21T02:37:13.273Z,12.65
2019-05-21T02:38:13.260Z,12.67
2019-05-21T02:39:13.253Z,12.54
2019-05-21T02:40:13.254Z,12.60
2019-05-21T02:41:13.226Z,12.53
2019-05-21T02:42:13.222Z,12.56
2019-05-21T02:43:13.208Z,12.53
2019-05-21T02:44:13.199Z,12.49
2019-05-21T02:45:13.182Z,12.54
2019-05-21T02:46:13.172Z,12.62
2019-05-21T02:47:13.158Z,12.65
2019-05-21T02:48:13.148Z,12.74
2019-05-21T02:49:13.137Z,12.82
2019-05-21T02:50:13.127Z,12.85
2019-05-21T02:51:13.117Z,12.90
2019-05-21T02:52:13.106Z,12.90
2019-05-21T02:53:13.098Z,12.97
2019-05-21T02:54:13.092Z,12.90
2019-05-21T02:55:13.071Z,12.90
2019-05-21T02:56:13.062Z,12.85
2019-05-21T02:57:13.052Z,12.92
2019-05-21T02:58:13.047Z,12.89
2019-05-21T02:59:13.030Z,12.90
2019-05-21T03:00:13.018Z,12.89
2019-05-21T03:01:13.009Z,12.90
2019-05-21T03:02:12.996Z,12.87
2019-05-21T03:03:12.989Z,12.83
2019-05-21T03:04:12.978Z,12.87
2019-05-21T03:05:12.968Z,12.79
2019-05-21T03:06:14.935Z,12.90
2019-05-21T03:07:12.944Z,12.82
2019-05-21T03:08:12.932Z,12.83
2019-05-21T03:09:12.922Z,12.92
2019-05-21T03:10:12.910Z,12.89
2019-05-21T03:11:12.901Z,12.86
2019-05-21T03:12:12.888Z,12.83
2019-05-21T03:13:12.876Z,12.78
2019-05-21T03:14:12.865Z,12.78
2019-05-21T03:15:12.863Z,12.75
2019-05-21T03:16:12.845Z,12.85
2019-05-21T03:17:12.834Z,12.90
2019-05-21T03:18:12.826Z,12.79
2019-05-21T03:19:16.473Z,12.75
2019-05-21T03:20:12.814Z,12.90
2019-05-21T03:21:12.789Z,12.90
2019-05-21T03:22:12.779Z,12.86
2019-05-21T03:23:12.781Z,12.95
2019-05-21T03:24:12.759Z,12.90
2019-05-21T03:25:12.746Z,12.79
2019-05-21T03:26:12.737Z,12.93
2019-05-21T03:27:12.742Z,12.85
2019-05-21T03:28:12.715Z,12.86
2019-05-21T03:29:12.749Z,12.82
2019-05-21T03:30:12.727Z,12.86
2019-05-21T03:31:12.684Z,12.86
2019-05-21T03:32:12.670Z,12.82
2019-05-21T03:33:12.669Z,12.79
2019-05-21T03:34:12.648Z,12.85
2019-05-21T03:35:12.652Z,12.82
2019-05-21T03:36:29.648Z,12.71
2019-05-21T03:37:13.616Z,12.77
2019-05-21T03:38:12.606Z,12.71
2019-05-21T03:39:12.602Z,12.65
2019-05-21T03:40:12.598Z,12.64
2019-05-21T03:41:12.573Z,12.67
2019-05-21T03:42:12.561Z,12.62
2019-05-21T03:43:12.550Z,12.67
2019-05-21T03:44:12.539Z,12.71
2019-05-21T03:45:12.530Z,12.60
2019-05-21T03:46:12.518Z,12.65
2019-05-21T03:47:12.509Z,12.70
2019-05-21T03:48:12.503Z,12.67
2019-05-21T03:49:12.484Z,12.71
2019-05-21T03:50:12.486Z,12.75
2019-05-21T03:51:12.472Z,12.78
2019-05-21T03:52:12.452Z,12.85
2019-05-21T03:53:12.442Z,12.92
2019-05-21T03:54:12.431Z,12.90
2019-05-21T03:55:12.420Z,12.90
2019-05-21T03:56:12.412Z,12.89
2019-05-21T03:57:12.396Z,12.85
2019-05-21T03:58:12.387Z,12.87
2019-05-21T03:59:12.379Z,12.93
2019-05-21T04:00:12.367Z,12.90
2019-05-21T04:01:12.357Z,12.90
2019-05-21T04:02:12.352Z,12.85
2019-05-21T04:03:12.337Z,12.87
2019-05-21T04:04:12.322Z,12.86
2019-05-21T04:05:12.314Z,12.92
2019-05-21T04:06:12.305Z,12.82
2019-05-21T04:07:12.290Z,12.86
2019-05-21T04:08:12.281Z,12.87
2019-05-21T04:09:12.268Z,13.00
2019-05-21T04:10:12.259Z,13.01
2019-05-21T04:11:12.247Z,12.96
2019-05-21T04:12:12.236Z,13.01
2019-05-21T04:13:12.229Z,13.03
2019-05-21T04:14:12.219Z,13.10
2019-05-21T04:15:12.204Z,12.97
2019-05-21T04:16:12.198Z,13.04
2019-05-21T04:17:12.200Z,13.03
2019-05-21T04:18:12.173Z,13.08
2019-05-21T04:19:12.162Z,13.04
2019-05-21T04:20:12.154Z,13.14
2019-05-21T04:21:12.144Z,13.08
2019-05-21T04:22:12.137Z,13.08
2019-05-21T04:23:12.118Z,13.01
2019-05-21T04:24:12.109Z,13.15
2019-05-21T04:25:12.100Z,13.14
2019-05-21T04:26:12.085Z,13.19
2019-05-21T04:27:12.076Z,13.12
2019-05-21T04:28:12.065Z,13.10
2019-05-21T04:29:12.054Z,13.15
2019-05-21T04:30:12.060Z,13.20
2019-05-21T04:31:12.032Z,13.26
2019-05-21T04:32:12.027Z,13.28
2019-05-21T04:33:12.010Z,13.29
2019-05-21T04:34:11.999Z,13.29
2019-05-21T04:35:11.994Z,13.33
2019-05-21T04:36:11.980Z,13.39
2019-05-21T04:37:12.512Z,13.41
2019-05-21T04:38:11.958Z,13.41
2019-05-21T04:39:12.085Z,13.45
2019-05-21T04:40:11.934Z,13.46
2019-05-21T04:41:11.928Z,13.51
2019-05-21T04:42:11.914Z,13.51
2019-05-21T04:43:11.904Z,13.51
2019-05-21T04:44:11.895Z,13.48
2019-05-21T04:45:11.883Z,13.48
2019-05-21T04:46:11.878Z,13.59
2019-05-21T04:47:11.878Z,13.49
2019-05-21T04:48:11.879Z,13.46
2019-05-21T04:49:11.843Z,13.55
2019-05-21T04:50:11.828Z,13.64
2019-05-21T04:51:13.871Z,13.64
2019-05-21T04:52:11.807Z,13.59
2019-05-21T04:53:11.792Z,13.63
2019-05-21T04:54:11.780Z,13.71
2019-05-21T04:55:11.776Z,13.75
2019-05-21T04:56:11.765Z,13.75
2019-05-21T04:57:11.746Z,13.64
2019-05-21T04:58:11.737Z,13.81
2019-05-21T04:59:11.730Z,13.87
2019-05-21T05:00:11.721Z,13.88
2019-05-21T05:01:11.705Z,13.97
2019-05-21T05:02:11.692Z,13.89
2019-05-21T05:03:11.683Z,13.96
2019-05-21T05:04:11.672Z,14.00
2019-05-21T05:05:11.660Z,14.03
2019-05-21T05:06:11.648Z,14.06
2019-05-21T05:07:27.045Z,14.09
2019-05-21T05:08:12.622Z,14.09
2019-05-21T05:09:11.612Z,14.18
2019-05-21T05:10:11.605Z,14.14
2019-05-21T05:11:11.592Z,14.20
2019-05-21T05:12:11.580Z,14.22
2019-05-21T05:13:11.571Z,14.21
2019-05-21T05:14:11.562Z,14.17
2019-05-21T05:15:11.547Z,14.25
2019-05-21T05:16:11.537Z,14.33
2019-05-21T05:17:11.527Z,14.51
2019-05-21T05:18:11.520Z,14.84
2019-05-21T05:19:11.505Z,15.07
2019-05-21T05:20:11.495Z,14.99
2019-05-21T05:21:11.481Z,15.09
2019-05-21T05:22:11.471Z,15.16
2019-05-21T05:23:11.461Z,15.28
2019-05-21T05:24:11.452Z,15.25
2019-05-21T05:25:11.440Z,15.29
2019-05-21T05:26:11.425Z,15.21
2019-05-21T05:27:11.420Z,15.14
2019-05-21T05:28:11.405Z,15.19
2019-05-21T05:29:11.393Z,15.16
2019-05-21T05:30:11.386Z,15.21
2019-05-21T05:31:14.954Z,15.25
2019-05-21T05:32:11.360Z,15.54
2019-05-21T05:33:11.362Z,15.54
2019-05-21T05:34:11.339Z,15.62
2019-05-21T05:35:11.386Z,15.86
2019-05-21T05:36:11.332Z,15.90
2019-05-21T05:37:11.305Z,15.93
2019-05-21T05:38:11.296Z,15.94
2019-05-21T05:39:11.285Z,15.97
2019-05-21T05:40:11.286Z,16.01
2019-05-21T05:41:11.265Z,16.02
2019-05-21T05:42:11.271Z,16.08
2019-05-21T05:43:11.240Z,16.05
2019-05-21T05:44:11.229Z,15.93
2019-05-21T05:45:11.217Z,15.68
2019-05-21T05:46:11.210Z,15.68
2019-05-21T05:47:11.201Z,15.68
2019-05-21T05:48:11.186Z,15.78
2019-05-21T05:49:11.181Z,16.11
2019-05-21T05:50:11.165Z,16.17
2019-05-21T05:51:11.153Z,16.12
2019-05-21T05:52:11.142Z,16.28
2019-05-21T05:53:11.130Z,16.25
2019-05-21T05:54:11.122Z,16.33
2019-05-21T05:55:11.130Z,16.83
2019-05-21T05:56:11.098Z,16.94
2019-05-21T05:57:11.086Z,17.01
2019-05-21T05:58:11.080Z,17.37
2019-05-21T05:59:14.196Z,17.87
2019-05-21T06:00:11.064Z,18.26
2019-05-21T06:01:11.047Z,18.47
2019-05-21T06:02:11.040Z,18.51
2019-05-21T06:03:11.026Z,18.82
2019-05-21T06:04:11.012Z,18.66
2019-05-21T06:05:11.003Z,18.69
2019-05-21T06:06:10.988Z,18.65
2019-05-21T06:07:10.978Z,18.88
2019-05-21T06:08:10.971Z,19.14
2019-05-21T06:09:10.955Z,19.08
2019-05-21T06:10:10.946Z,19.18
2019-05-21T06:11:10.936Z,19.36
2019-05-21T06:12:10.924Z,19.32
2019-05-21T06:13:10.913Z,19.48
2019-05-21T06:14:10.920Z,19.59
2019-05-21T06:15:10.893Z,19.76
2019-05-21T06:16:10.880Z,19.73
2019-05-21T06:17:10.873Z,19.83
2019-05-21T06:18:10.859Z,19.58
2019-05-21T06:19:10.846Z,19.48
2019-05-21T06:20:10.843Z,19.51
2019-05-21T06:21:10.826Z,19.16
2019-05-21T06:22:10.814Z,19.11
2019-05-21T06:23:10.807Z,19.16
2019-05-21T06:24:13.514Z,19.29
2019-05-21T06:25:10.783Z,19.32
2019-05-21T06:26:10.771Z,19.46
2019-05-21T06:27:10.758Z,19.65
2019-05-21T06:28:10.787Z,19.77
2019-05-21T06:29:10.738Z,19.83
2019-05-21T06:30:10.735Z,19.73
2019-05-21T06:31:10.716Z,19.77
2019-05-21T06:32:10.709Z,19.62
2019-05-21T06:33:10.695Z,19.77
2019-05-21T06:34:10.684Z,19.92
2019-05-21T06:35:10.677Z,19.81
2019-05-21T06:36:10.664Z,19.94
2019-05-21T06:37:10.656Z,20.28
2019-05-21T06:38:17.775Z,20.48
2019-05-21T06:39:11.626Z,20.55
2019-05-21T06:40:10.622Z,20.39
2019-05-21T06:41:10.612Z,19.99
2019-05-21T06:42:10.597Z,19.29
2019-05-21T06:43:10.587Z,19.14
2019-05-21T06:44:10.575Z,19.36
2019-05-21T06:45:10.616Z,19.48
2019-05-21T06:46:10.555Z,19.40
2019-05-21T06:47:10.545Z,19.16
2019-05-21T06:48:10.534Z,19.21
2019-05-21T06:49:10.521Z,19.59
2019-05-21T06:50:10.509Z,19.98
2019-05-21T06:51:10.500Z,20.16
2019-05-21T06:52:10.491Z,20.31
2019-05-21T06:53:10.478Z,20.51
2019-05-21T06:54:10.467Z,20.36
2019-05-21T06:55:10.477Z,20.59
2019-05-21T06:56:10.448Z,20.67
2019-05-21T06:57:10.472Z,20.58
2019-05-21T06:58:10.422Z,20.67
2019-05-21T06:59:10.439Z,20.31
2019-05-21T07:00:10.403Z,20.26
2019-05-21T07:01:10.392Z,20.28
2019-05-21T07:02:10.387Z,20.24
2019-05-21T07:03:10.396Z,19.69
2019-05-21T07:04:10.361Z,19.33
2019-05-21T07:05:10.377Z,19.11
2019-05-21T07:06:10.337Z,19.32
2019-05-21T07:07:10.364Z,19.46
2019-05-21T07:08:10.329Z,19.73
2019-05-21T07:09:10.305Z,19.99
2019-05-21T07:10:10.294Z,19.96
2019-05-21T07:11:10.285Z,20.33
2019-05-21T07:12:10.270Z,20.69
2019-05-21T07:13:10.260Z,20.58
2019-05-21T07:14:10.250Z,20.43
2019-05-21T07:15:10.240Z,20.66
2019-05-21T07:16:10.228Z,20.67
2019-05-21T07:17:10.229Z,20.73
2019-05-21T07:18:10.207Z,20.59
2019-05-21T07:19:10.202Z,20.61
2019-05-21T07:20:10.194Z,20.99
2019-05-21T07:21:10.188Z,21.22
2019-05-21T07:22:13.036Z,21.50
2019-05-21T07:23:10.265Z,21.68
2019-05-21T07:24:10.143Z,21.67
2019-05-21T07:25:10.148Z,21.71
2019-05-21T07:26:10.120Z,21.68
2019-05-21T07:27:10.111Z,21.88
2019-05-21T07:28:10.101Z,22.18
2019-05-21T07:29:10.107Z,22.42
2019-05-21T07:30:10.093Z,22.61
2019-05-21T07:31:10.067Z,22.91
2019-05-21T07:32:10.054Z,22.79
2019-05-21T07:33:10.068Z,22.33
2019-05-21T07:34:10.036Z,21.96
2019-05-21T07:35:10.024Z,21.65
2019-05-21T07:36:10.014Z,21.77
2019-05-21T07:37:10.003Z,21.91
2019-05-21T07:38:09.995Z,22.21
2019-05-21T07:39:09.982Z,22.12
2019-05-21T07:40:09.968Z,22.22
2019-05-21T07:41:09.958Z,22.33
2019-05-21T07:42:09.949Z,22.57
2019-05-21T07:43:09.945Z,22.85
2019-05-21T07:44:09.938Z,22.90
2019-05-21T07:45:10.026Z,22.79
2019-05-21T07:46:09.906Z,22.90
2019-05-21T07:47:09.911Z,22.88
2019-05-21T07:48:09.902Z,22.54
2019-05-21T07:49:09.872Z,22.55
2019-05-21T07:50:09.860Z,22.55
2019-05-21T07:51:09.851Z,22.58
2019-05-21T07:52:09.843Z,22.68
2019-05-21T07:53:09.829Z,22.98
2019-05-21T07:54:09.819Z,23.31
2019-05-21T07:55:09.808Z,23.07
2019-05-21T07:56:09.799Z,22.55
2019-05-21T07:57:09.787Z,22.35
2019-05-21T07:58:09.779Z,22.64
2019-05-21T07:59:09.769Z,22.85
2019-05-21T08:00:09.759Z,22.51
2019-05-21T08:01:09.745Z,22.18
2019-05-21T08:02:09.734Z,22.09
2019-05-21T08:03:09.724Z,22.17
2019-05-21T08:04:09.714Z,22.46
2019-05-21T08:05:09.701Z,22.65
2019-05-21T08:06:09.697Z,23.04
2019-05-21T08:07:09.687Z,23.53
2019-05-21T08:08:09.670Z,23.84
2019-05-21T08:09:13.982Z,23.88
2019-05-21T08:10:09.673Z,23.57
2019-05-21T08:11:09.643Z,23.31
2019-05-21T08:12:27.774Z,23.05
2019-05-21T08:13:10.619Z,23.12
2019-05-21T08:14:09.612Z,23.23
2019-05-21T08:15:09.608Z,23.63
2019-05-21T08:16:09.688Z,23.88
2019-05-21T08:17:09.588Z,23.55
2019-05-21T08:18:09.578Z,23.32
2019-05-21T08:19:09.711Z,23.23
2019-05-21T08:20:10.610Z,23.17
2019-05-21T08:21:09.547Z,23.46
2019-05-21T08:22:09.566Z,23.50
2019-05-21T08:23:09.526Z,23.80
2019-05-21T08:24:09.520Z,23.91
2019-05-21T08:25:13.858Z,24.25
2019-05-21T08:26:10.499Z,24.55
2019-05-21T08:27:09.511Z,24.34
2019-05-21T08:28:09.475Z,24.37
2019-05-21T08:29:09.466Z,24.49
2019-05-21T08:30:09.461Z,24.81
2019-05-21T08:31:09.442Z,25.06
2019-05-21T08:32:09.434Z,25.21
2019-05-21T08:33:09.422Z,25.30
2019-05-21T08:34:09.411Z,25.33
2019-05-21T08:35:09.469Z,25.58
2019-05-21T08:36:09.393Z,25.82
2019-05-21T08:37:09.383Z,25.73
2019-05-21T08:38:09.379Z,25.64
2019-05-21T08:39:09.366Z,25.02
2019-05-21T08:40:09.356Z,25.15
2019-05-21T08:41:09.366Z,25.55
2019-05-21T08:42:09.340Z,25.39
2019-05-21T08:43:09.325Z,25.35
2019-05-21T08:44:09.334Z,24.76
2019-05-21T08:45:09.306Z,24.78
2019-05-21T08:46:09.296Z,24.73
2019-05-21T08:47:09.306Z,24.53
2019-05-21T08:48:09.284Z,24.64
2019-05-21T08:49:09.265Z,24.96
2019-05-21T08:50:09.263Z,25.03
2019-05-21T08:51:09.287Z,25.15
2019-05-21T08:52:09.241Z,25.14
2019-05-21T08:53:09.228Z,25.30
2019-05-21T08:54:09.217Z,25.80
2019-05-21T08:55:09.207Z,25.85
2019-05-21T08:56:09.203Z,26.37
2019-05-21T08:57:09.189Z,26.48
2019-05-21T08:58:09.186Z,27.09
2019-05-21T08:59:09.167Z,27.25
2019-05-21T09:00:09.166Z,26.88
2019-05-21T09:01:09.151Z,27.04
2019-05-21T09:02:09.150Z,26.97
2019-05-21T09:03:09.133Z,26.51
2019-05-21T09:04:09.123Z,26.50
2019-05-21T09:05:09.113Z,26.32
2019-05-21T09:06:09.101Z,25.82
2019-05-21T09:07:09.152Z,25.55
2019-05-21T09:08:09.084Z,26.10
2019-05-21T09:09:09.074Z,26.51
2019-05-21T09:10:09.078Z,27.07
2019-05-21T09:11:09.079Z,26.36
2019-05-21T09:12:09.044Z,25.36
2019-05-21T09:13:09.033Z,24.78
2019-05-21T09:14:09.079Z,24.46
2019-05-21T09:15:09.017Z,24.34
2019-05-21T09:16:09.004Z,24.08
2019-05-21T09:17:08.996Z,23.93
2019-05-21T09:18:09.028Z,24.24
2019-05-21T09:19:08.991Z,23.79
2019-05-21T09:20:08.971Z,23.84
2019-05-21T09:21:08.960Z,24.32
2019-05-21T09:22:08.943Z,25.02
2019-05-21T09:23:08.935Z,25.38
2019-05-21T09:24:08.923Z,25.00
2019-05-21T09:25:08.915Z,24.55
2019-05-21T09:26:08.902Z,24.21
2019-05-21T09:27:08.894Z,23.97
2019-05-21T09:28:09.077Z,23.85
2019-05-21T09:29:08.912Z,24.02
2019-05-21T09:30:08.866Z,24.08
2019-05-21T09:31:08.856Z,24.28
2019-05-21T09:32:08.844Z,24.24
2019-05-21T09:33:08.830Z,23.83
2019-05-21T09:34:08.830Z,23.70
2019-05-21T09:35:08.812Z,23.58
2019-05-21T09:36:08.797Z,23.33
2019-05-21T09:37:19.391Z,23.36
2019-05-21T09:38:09.777Z,23.46
2019-05-21T09:39:08.783Z,23.55
2019-05-21T09:40:08.921Z,23.39
2019-05-21T09:41:08.755Z,23.38
2019-05-21T09:42:08.748Z,23.39
2019-05-21T09:43:08.730Z,23.47
2019-05-21T09:44:08.718Z,23.47
2019-05-21T09:45:08.703Z,23.35
2019-05-21T09:46:08.700Z,23.36
2019-05-21T09:47:08.737Z,23.38
2019-05-21T09:48:08.672Z,23.47
2019-05-21T09:49:08.657Z,23.65
2019-05-21T09:50:08.653Z,23.60
2019-05-21T09:51:08.637Z,23.60
2019-05-21T09:52:08.628Z,23.65
2019-05-21T09:53:08.617Z,23.63
2019-05-21T09:54:08.611Z,23.72
2019-05-21T09:55:08.592Z,23.39
2019-05-21T09:56:08.579Z,23.35
2019-05-21T09:57:08.570Z,23.05
2019-05-21T09:58:08.564Z,22.65
2019-05-21T09:59:08.550Z,22.39
2019-05-21T10:00:08.538Z,22.54
2019-05-21T10:01:08.527Z,22.43
2019-05-21T10:02:08.518Z,22.57
2019-05-21T10:03:08.518Z,22.45
2019-05-21T10:04:08.500Z,22.21
2019-05-21T10:05:08.488Z,22.37
2019-05-21T10:06:08.474Z,22.52
2019-05-21T10:07:08.465Z,22.76
2019-05-21T10:08:08.456Z,22.91
2019-05-21T10:09:08.447Z,23.09
2019-05-21T10:10:08.443Z,23.53
2019-05-21T10:11:08.423Z,24.24
2019-05-21T10:12:08.413Z,25.15
2019-05-21T10:13:08.401Z,25.09
2019-05-21T10:14:08.391Z,25.27
2019-05-21T10:15:08.391Z,25.95
2019-05-21T10:16:08.368Z,25.50
2019-05-21T10:17:08.365Z,25.38
2019-05-21T10:18:08.349Z,25.80
2019-05-21T10:19:08.336Z,26.54
2019-05-21T10:20:08.330Z,27.07
2019-05-21T10:21:08.316Z,27.47
2019-05-21T10:22:08.907Z,27.78
2019-05-21T10:23:08.297Z,28.14
2019-05-21T10:24:08.290Z,28.54
2019-05-21T10:25:08.289Z,28.52
2019-05-21T10:26:08.267Z,28.98
2019-05-21T10:27:08.259Z,29.52
2019-05-21T10:28:08.248Z,29.78
2019-05-21T10:29:08.239Z,29.95
2019-05-21T10:30:08.226Z,29.65
2019-05-21T10:31:08.220Z,28.90
2019-05-21T10:32:08.207Z,28.96
2019-05-21T10:33:08.245Z,27.82
2019-05-21T10:34:08.191Z,27.55
2019-05-21T10:35:08.194Z,27.34
2019-05-21T10:36:08.170Z,26.28
2019-05-21T10:37:08.162Z,26.06
2019-05-21T10:38:08.149Z,26.62
2019-05-21T10:39:08.138Z,26.99
2019-05-21T10:40:08.129Z,26.45
2019-05-21T10:41:08.121Z,25.80
2019-05-21T10:42:08.110Z,26.15
2019-05-21T10:43:08.097Z,26.81
2019-05-21T10:44:08.088Z,27.43
2019-05-21T10:45:08.098Z,27.47
2019-05-21T10:46:08.068Z,26.54
2019-05-21T10:47:08.177Z,26.77
2019-05-21T10:48:08.054Z,27.22
2019-05-21T10:49:08.041Z,27.62
2019-05-21T10:50:08.037Z,28.02
2019-05-21T10:51:08.040Z,28.31
2019-05-21T10:52:08.013Z,28.39
2019-05-21T10:53:08.003Z,28.59
2019-05-21T10:54:07.993Z,28.55
2019-05-21T10:55:07.982Z,28.62
2019-05-21T10:56:07.970Z,28.49
2019-05-21T10:57:07.959Z,28.03
2019-05-21T10:58:07.959Z,27.31
2019-05-21T10:59:07.943Z,26.72
2019-05-21T11:00:07.933Z,26.47
2019-05-21T11:01:07.920Z,26.13
2019-05-21T11:02:08.140Z,26.02
2019-05-21T11:03:07.905Z,25.72
2019-05-21T11:04:07.890Z,25.82
2019-05-21T11:05:07.881Z,26.07
2019-05-21T11:06:10.472Z,26.35
2019-05-21T11:07:07.861Z,26.45
2019-05-21T11:08:24.803Z,26.62
2019-05-21T11:09:08.838Z,26.60
2019-05-21T11:10:08.065Z,26.57
2019-05-21T11:11:07.820Z,26.67
2019-05-21T11:12:07.809Z,26.52
2019-05-21T11:13:07.801Z,25.94
2019-05-21T11:14:07.794Z,25.58
2019-05-21T11:15:07.782Z,25.75
2019-05-21T11:16:07.775Z,25.87
2019-05-21T11:17:07.759Z,25.83
2019-05-21T11:18:11.007Z,25.77
2019-05-21T11:19:07.738Z,25.85
2019-05-21T11:20:07.727Z,25.58
2019-05-21T11:21:07.718Z,25.18
2019-05-21T11:22:07.704Z,24.99
2019-05-21T11:23:07.702Z,25.00
2019-05-21T11:24:07.749Z,25.03
2019-05-21T11:25:07.828Z,25.09
2019-05-21T11:26:07.662Z,25.15
2019-05-21T11:27:07.651Z,25.17
2019-05-21T11:28:07.641Z,25.39
2019-05-21T11:29:07.630Z,25.88
2019-05-21T11:30:07.621Z,26.47
2019-05-21T11:31:07.610Z,26.89
2019-05-21T11:32:07.606Z,27.04
2019-05-21T11:33:07.615Z,27.36
2019-05-21T11:34:07.585Z,27.21
2019-05-21T11:35:07.567Z,27.59
2019-05-21T11:36:07.561Z,27.54
2019-05-21T11:37:07.547Z,27.28
2019-05-21T11:38:07.536Z,27.47
2019-05-21T11:39:07.527Z,27.49
2019-05-21T11:40:08.610Z,27.72
2019-05-21T11:41:07.521Z,27.81
2019-05-21T11:42:07.497Z,27.67
2019-05-21T11:43:07.487Z,27.67
2019-05-21T11:44:07.477Z,27.62
2019-05-21T11:45:07.466Z,27.63
2019-05-21T11:46:07.459Z,27.88
2019-05-21T11:47:07.444Z,27.88
2019-05-21T11:48:07.435Z,28.03
2019-05-21T11:49:07.424Z,27.78
2019-05-21T11:50:07.416Z,27.28
2019-05-21T11:51:07.424Z,26.91
2019-05-21T11:52:07.399Z,26.54
2019-05-21T11:53:07.385Z,26.07
2019-05-21T11:54:07.375Z,25.94
2019-05-21T11:55:07.363Z,25.80
2019-05-21T11:56:07.353Z,26.05
2019-05-21T11:57:07.396Z,26.35
2019-05-21T11:58:07.338Z,26.50
2019-05-21T11:59:07.320Z,26.60
2019-05-21T12:00:07.347Z,26.65
2019-05-21T12:01:07.304Z,26.73
2019-05-21T12:02:07.302Z,26.88
2019-05-21T12:03:07.282Z,26.69
2019-05-21T12:04:07.267Z,26.50
2019-05-21T12:05:07.259Z,26.48
2019-05-21T12:06:07.247Z,26.51
2019-05-21T12:07:07.239Z,26.44
2019-05-21T12:08:07.227Z,26.12
2019-05-21T12:09:07.218Z,26.10
2019-05-21T12:10:07.205Z,25.85
2019-05-21T12:11:07.196Z,25.85
2019-05-21T12:12:07.182Z,25.82
2019-05-21T12:13:07.182Z,25.98
2019-05-21T12:14:07.166Z,26.10
2019-05-21T12:15:07.152Z,26.17
2019-05-21T12:16:07.192Z,26.17
2019-05-21T12:17:07.131Z,25.99
2019-05-21T12:18:07.121Z,26.18
2019-05-21T12:19:08.231Z,26.33
2019-05-21T12:20:07.102Z,25.97
2019-05-21T12:21:07.093Z,26.23
2019-05-21T12:22:07.077Z,26.63
2019-05-21T12:23:07.095Z,26.97
2019-05-21T12:24:07.057Z,27.81
2019-05-21T12:25:07.046Z,28.46
2019-05-21T12:26:07.038Z,28.85
2019-05-21T12:27:07.030Z,29.18
2019-05-21T12:28:10.994Z,29.08
2019-05-21T12:29:07.005Z,28.90
2019-05-21T12:30:06.994Z,29.08
2019-05-21T12:31:06.985Z,29.02
2019-05-21T12:32:06.992Z,28.96
2019-05-21T12:33:06.970Z,28.54
2019-05-21T12:34:06.952Z,28.18
2019-05-21T12:35:06.943Z,27.84
2019-05-21T12:36:06.933Z,27.51
2019-05-21T12:37:06.925Z,26.50
2019-05-21T12:38:06.913Z,25.91
2019-05-21T12:39:14.357Z,26.26
2019-05-21T12:40:07.890Z,26.50
2019-05-21T12:41:06.881Z,26.95
2019-05-21T12:42:06.928Z,27.44
2019-05-21T12:43:07.008Z,27.62
2019-05-21T12:44:06.852Z,27.96
2019-05-21T12:45:06.845Z,28.31
2019-05-21T12:46:06.832Z,28.62
2019-05-21T12:47:09.770Z,29.04
2019-05-21T12:48:06.838Z,28.95
2019-05-21T12:49:06.801Z,28.88
2019-05-21T12:50:06.787Z,29.08
2019-05-21T12:51:06.778Z,29.57
2019-05-21T12:52:06.771Z,29.65